sensor_id;sensor_type;location;lat;lon;timestamp;P1;durP1;ratioP1;P2;durP2;ratioP2
64174;SDS011;50469;50.438;-119.202;2022-09-06T00:01:11;1.10;;;0.90;;
64174;SDS011;50469;50.438;-119.202;2022-09-06T00:03:41;2.45;;;0.82;;
64174;SDS011;50469;50.438;-119.202;2022-09-06T00:06:13;1.25;;;0.80;;
64174;SDS011;50469;50.438;-119.202;2022-09-06T00:08:43;1.35;;;0.73;;
64174;SDS011;50469;50.438;-119.202;2022-09-06T00:11:12;1.13;;;0.63;;
64174;SDS011;50469;50.438;-119.202;2022-09-06T00:13:41;1.00;;;0.57;;
64174;SDS011;50469;50.438;-119.202;2022-09-06T00:16:13;0.70;;;0.70;;
64174;SDS011;50469;50.438;-119.202;2022-09-06T00:18:43;1.85;;;0.63;;
64174;SDS011;50469;50.438;-119.202;2022-09-06T00:21:15;3.13;;;0.52;;
64174;SDS011;50469;50.438;-119.202;2022-09-06T00:23:56;1.73;;;0.70;;
64174;SDS011;50469;50.438;-119.202;2022-09-06T00:26:24;0.40;;;0.40;;
64174;SDS011;50469;50.438;-119.202;2022-09-06T00:28:55;0.50;;;0.50;;
64174;SDS011;50469;50.438;-119.202;2022-09-06T00:31:26;0.60;;;0.60;;
64174;SDS011;50469;50.438;-119.202;2022-09-06T00:33:55;1.55;;;0.60;;
64174;SDS011;50469;50.438;-119.202;2022-09-06T00:36:28;5.40;;;0.75;;
64174;SDS011;50469;50.438;-119.202;2022-09-06T00:38:56;1.08;;;0.65;;
64174;SDS011;50469;50.438;-119.202;2022-09-06T00:41:27;5.45;;;1.00;;
64174;SDS011;50469;50.438;-119.202;2022-09-06T00:43:58;5.28;;;1.17;;
64174;SDS011;50469;50.438;-119.202;2022-09-06T00:46:31;4.88;;;1.10;;
64174;SDS011;50469;50.438;-119.202;2022-09-06T00:52:09;1.25;;;0.98;;
64174;SDS011;50469;50.438;-119.202;2022-09-06T00:54:40;5.57;;;1.38;;
64174;SDS011;50469;50.438;-119.202;2022-09-06T00:57:11;1.63;;;1.15;;
64174;SDS011;50469;50.438;-119.202;2022-09-06T00:59:44;1.67;;;0.82;;
64174;SDS011;50469;50.438;-119.202;2022-09-06T01:02:15;2.17;;;0.90;;
64174;SDS011;50469;50.438;-119.202;2022-09-06T01:04:44;5.43;;;1.25;;
64174;SDS011;50469;50.438;-119.202;2022-09-06T01:36:18;8.63;;;1.70;;
64174;SDS011;50469;50.438;-119.202;2022-09-06T01:38:50;2.53;;;1.50;;
64174;SDS011;50469;50.438;-119.202;2022-09-06T01:41:18;4.10;;;1.90;;
64174;SDS011;50469;50.438;-119.202;2022-09-06T01:43:47;3.45;;;1.83;;
64174;SDS011;50469;50.438;-119.202;2022-09-06T01:57:08;5.30;;;1.77;;
64174;SDS011;50469;50.438;-119.202;2022-09-06T02:02:41;5.18;;;1.90;;
64174;SDS011;50469;50.438;-119.202;2022-09-06T02:05:33;9.13;;;2.60;;
64174;SDS011;50469;50.438;-119.202;2022-09-06T02:08:11;11.45;;;1.98;;
64174;SDS011;50469;50.438;-119.202;2022-09-06T02:10:55;4.25;;;1.40;;
64174;SDS011;50469;50.438;-119.202;2022-09-06T02:13:35;3.20;;;1.40;;
64174;SDS011;50469;50.438;-119.202;2022-09-06T02:16:08;8.60;;;1.58;;
64174;SDS011;50469;50.438;-119.202;2022-09-06T02:18:41;3.50;;;1.33;;
64174;SDS011;50469;50.438;-119.202;2022-09-06T02:21:14;4.28;;;1.40;;
64174;SDS011;50469;50.438;-119.202;2022-09-06T02:23:44;4.18;;;1.63;;
64174;SDS011;50469;50.438;-119.202;2022-09-06T02:26:18;21.33;;;1.80;;
64174;SDS011;50469;50.438;-119.202;2022-09-06T02:28:51;12.82;;;1.42;;
64174;SDS011;50469;50.438;-119.202;2022-09-06T02:31:24;13.05;;;1.83;;
64174;SDS011;50469;50.438;-119.202;2022-09-06T02:33:57;7.88;;;1.63;;
64174;SDS011;50469;50.438;-119.202;2022-09-06T02:36:26;12.05;;;2.97;;
64174;SDS011;50469;50.438;-119.202;2022-09-06T02:39:00;13.60;;;2.50;;
64174;SDS011;50469;50.438;-119.202;2022-09-06T02:41:35;6.22;;;1.60;;
64174;SDS011;50469;50.438;-119.202;2022-09-06T02:44:04;3.78;;;1.88;;
64174;SDS011;50469;50.438;-119.202;2022-09-06T02:46:35;2.33;;;1.45;;
64174;SDS011;50469;50.438;-119.202;2022-09-06T02:49:08;4.78;;;1.40;;
64174;SDS011;50469;50.438;-119.202;2022-09-06T02:51:36;5.72;;;1.55;;
64174;SDS011;50469;50.438;-119.202;2022-09-06T02:54:08;9.75;;;1.58;;
64174;SDS011;50469;50.438;-119.202;2022-09-06T02:56:39;9.48;;;1.92;;
64174;SDS011;50469;50.438;-119.202;2022-09-06T02:59:08;5.38;;;1.75;;
64174;SDS011;50469;50.438;-119.202;2022-09-06T03:01:36;7.43;;;2.15;;
64174;SDS011;50469;50.438;-119.202;2022-09-06T03:04:04;6.68;;;1.80;;
64174;SDS011;50469;50.438;-119.202;2022-09-06T03:06:32;4.15;;;1.27;;
64174;SDS011;50469;50.438;-119.202;2022-09-06T03:09:01;6.65;;;2.10;;
64174;SDS011;50469;50.438;-119.202;2022-09-06T03:11:31;10.43;;;2.10;;
64174;SDS011;50469;50.438;-119.202;2022-09-06T03:14:05;3.13;;;1.70;;
64174;SDS011;50469;50.438;-119.202;2022-09-06T03:16:33;5.32;;;1.60;;
64174;SDS011;50469;50.438;-119.202;2022-09-06T03:19:01;12.35;;;1.92;;
64174;SDS011;50469;50.438;-119.202;2022-09-06T03:21:34;12.48;;;1.95;;
64174;SDS011;50469;50.438;-119.202;2022-09-06T03:24:02;19.88;;;2.65;;
64174;SDS011;50469;50.438;-119.202;2022-09-06T03:26:33;19.95;;;2.10;;
64174;SDS011;50469;50.438;-119.202;2022-09-06T03:29:01;9.20;;;1.90;;
64174;SDS011;50469;50.438;-119.202;2022-09-06T03:31:30;7.72;;;1.77;;
64174;SDS011;50469;50.438;-119.202;2022-09-06T03:33:58;14.57;;;1.88;;
64174;SDS011;50469;50.438;-119.202;2022-09-06T03:36:26;19.27;;;2.58;;
64174;SDS011;50469;50.438;-119.202;2022-09-06T03:38:54;10.77;;;2.50;;
64174;SDS011;50469;50.438;-119.202;2022-09-06T03:41:25;14.82;;;2.25;;
64174;SDS011;50469;50.438;-119.202;2022-09-06T03:43:53;16.08;;;2.05;;
64174;SDS011;50469;50.438;-119.202;2022-09-06T03:46:21;7.35;;;1.80;;
64174;SDS011;50469;50.438;-119.202;2022-09-06T03:48:50;6.93;;;1.90;;
64174;SDS011;50469;50.438;-119.202;2022-09-06T03:51:21;7.10;;;1.85;;
64174;SDS011;50469;50.438;-119.202;2022-09-06T03:53:52;23.05;;;2.00;;
64174;SDS011;50469;50.438;-119.202;2022-09-06T03:56:22;11.95;;;2.35;;
64174;SDS011;50469;50.438;-119.202;2022-09-06T03:58:51;17.02;;;1.90;;
64174;SDS011;50469;50.438;-119.202;2022-09-06T04:01:19;4.50;;;1.92;;
64174;SDS011;50469;50.438;-119.202;2022-09-06T04:03:53;15.32;;;2.03;;
64174;SDS011;50469;50.438;-119.202;2022-09-06T04:06:23;11.93;;;1.85;;
64174;SDS011;50469;50.438;-119.202;2022-09-06T04:08:51;6.53;;;1.83;;
64174;SDS011;50469;50.438;-119.202;2022-09-06T04:11:22;7.43;;;1.75;;
64174;SDS011;50469;50.438;-119.202;2022-09-06T04:13:51;9.70;;;1.95;;
64174;SDS011;50469;50.438;-119.202;2022-09-06T04:16:19;9.98;;;2.00;;
64174;SDS011;50469;50.438;-119.202;2022-09-06T04:18:48;11.45;;;2.10;;
64174;SDS011;50469;50.438;-119.202;2022-09-06T04:21:19;12.57;;;1.70;;
64174;SDS011;50469;50.438;-119.202;2022-09-06T04:23:47;7.63;;;2.17;;
64174;SDS011;50469;50.438;-119.202;2022-09-06T04:26:15;12.18;;;1.83;;
64174;SDS011;50469;50.438;-119.202;2022-09-06T04:28:44;9.52;;;2.13;;
64174;SDS011;50469;50.438;-119.202;2022-09-06T04:31:12;7.15;;;2.15;;
64174;SDS011;50469;50.438;-119.202;2022-09-06T04:33:42;4.75;;;1.77;;
64174;SDS011;50469;50.438;-119.202;2022-09-06T04:36:13;6.60;;;2.10;;
64174;SDS011;50469;50.438;-119.202;2022-09-06T04:38:42;12.05;;;1.45;;
64174;SDS011;50469;50.438;-119.202;2022-09-06T04:41:12;9.63;;;1.80;;
64174;SDS011;50469;50.438;-119.202;2022-09-06T04:43:41;5.47;;;2.05;;
64174;SDS011;50469;50.438;-119.202;2022-09-06T04:46:17;14.07;;;2.25;;
64174;SDS011;50469;50.438;-119.202;2022-09-06T04:48:46;17.17;;;2.42;;
64174;SDS011;50469;50.438;-119.202;2022-09-06T04:51:15;15.90;;;2.40;;
64174;SDS011;50469;50.438;-119.202;2022-09-06T04:53:44;7.28;;;1.90;;
64174;SDS011;50469;50.438;-119.202;2022-09-06T04:56:14;7.07;;;1.98;;
64174;SDS011;50469;50.438;-119.202;2022-09-06T04:58:49;6.22;;;1.90;;
64174;SDS011;50469;50.438;-119.202;2022-09-06T05:01:19;8.40;;;2.00;;
64174;SDS011;50469;50.438;-119.202;2022-09-06T05:03:50;9.75;;;2.28;;
64174;SDS011;50469;50.438;-119.202;2022-09-06T05:06:22;16.05;;;2.85;;
64174;SDS011;50469;50.438;-119.202;2022-09-06T05:08:54;15.55;;;2.50;;
64174;SDS011;50469;50.438;-119.202;2022-09-06T05:11:22;24.27;;;2.38;;
64174;SDS011;50469;50.438;-119.202;2022-09-06T05:13:50;16.00;;;2.45;;
64174;SDS011;50469;50.438;-119.202;2022-09-06T05:16:18;12.02;;;2.15;;
64174;SDS011;50469;50.438;-119.202;2022-09-06T05:18:47;7.05;;;2.10;;
64174;SDS011;50469;50.438;-119.202;2022-09-06T05:21:15;18.02;;;2.58;;
64174;SDS011;50469;50.438;-119.202;2022-09-06T05:23:46;8.02;;;2.60;;
64174;SDS011;50469;50.438;-119.202;2022-09-06T05:26:14;11.35;;;2.95;;
64174;SDS011;50469;50.438;-119.202;2022-09-06T05:28:42;8.95;;;2.90;;
64174;SDS011;50469;50.438;-119.202;2022-09-06T05:31:11;18.10;;;2.80;;
64174;SDS011;50469;50.438;-119.202;2022-09-06T05:33:51;4.53;;;1.90;;
64174;SDS011;50469;50.438;-119.202;2022-09-06T05:36:20;10.77;;;2.30;;
64174;SDS011;50469;50.438;-119.202;2022-09-06T05:38:49;10.38;;;1.80;;
64174;SDS011;50469;50.438;-119.202;2022-09-06T05:41:18;15.32;;;2.13;;
64174;SDS011;50469;50.438;-119.202;2022-09-06T05:43:49;12.82;;;2.40;;
64174;SDS011;50469;50.438;-119.202;2022-09-06T05:46:17;13.52;;;2.65;;
64174;SDS011;50469;50.438;-119.202;2022-09-06T05:48:55;12.45;;;1.70;;
64174;SDS011;50469;50.438;-119.202;2022-09-06T05:51:25;5.70;;;2.58;;
64174;SDS011;50469;50.438;-119.202;2022-09-06T05:53:53;7.47;;;2.08;;
64174;SDS011;50469;50.438;-119.202;2022-09-06T05:56:21;8.07;;;2.75;;
64174;SDS011;50469;50.438;-119.202;2022-09-06T05:58:52;9.68;;;2.20;;
64174;SDS011;50469;50.438;-119.202;2022-09-06T06:03:53;10.88;;;2.10;;
64174;SDS011;50469;50.438;-119.202;2022-09-06T06:06:23;15.35;;;2.33;;
64174;SDS011;50469;50.438;-119.202;2022-09-06T06:08:53;6.38;;;2.17;;
64174;SDS011;50469;50.438;-119.202;2022-09-06T06:11:22;12.35;;;2.80;;
64174;SDS011;50469;50.438;-119.202;2022-09-06T06:13:51;7.93;;;2.30;;
64174;SDS011;50469;50.438;-119.202;2022-09-06T06:16:20;4.80;;;2.10;;
64174;SDS011;50469;50.438;-119.202;2022-09-06T06:18:49;5.90;;;1.92;;
64174;SDS011;50469;50.438;-119.202;2022-09-06T06:21:22;7.40;;;2.38;;
64174;SDS011;50469;50.438;-119.202;2022-09-06T06:23:51;13.52;;;2.20;;
64174;SDS011;50469;50.438;-119.202;2022-09-06T06:26:26;13.98;;;2.30;;
64174;SDS011;50469;50.438;-119.202;2022-09-06T06:28:58;8.23;;;2.55;;
64174;SDS011;50469;50.438;-119.202;2022-09-06T06:31:27;4.55;;;2.08;;
64174;SDS011;50469;50.438;-119.202;2022-09-06T06:33:56;14.10;;;1.80;;
64174;SDS011;50469;50.438;-119.202;2022-09-06T06:36:25;10.80;;;2.20;;
64174;SDS011;50469;50.438;-119.202;2022-09-06T06:38:57;5.28;;;1.98;;
64174;SDS011;50469;50.438;-119.202;2022-09-06T06:41:26;10.10;;;2.08;;
64174;SDS011;50469;50.438;-119.202;2022-09-06T06:44:00;11.70;;;2.08;;
64174;SDS011;50469;50.438;-119.202;2022-09-06T06:46:36;4.18;;;1.85;;
64174;SDS011;50469;50.438;-119.202;2022-09-06T06:49:09;8.73;;;2.17;;
64174;SDS011;50469;50.438;-119.202;2022-09-06T06:51:40;7.47;;;2.33;;
64174;SDS011;50469;50.438;-119.202;2022-09-06T06:54:08;5.88;;;1.98;;
64174;SDS011;50469;50.438;-119.202;2022-09-06T06:56:37;5.10;;;1.80;;
64174;SDS011;50469;50.438;-119.202;2022-09-06T06:59:06;4.22;;;2.03;;
64174;SDS011;50469;50.438;-119.202;2022-09-06T07:01:35;5.57;;;1.95;;
64174;SDS011;50469;50.438;-119.202;2022-09-06T07:04:03;4.97;;;1.80;;
64174;SDS011;50469;50.438;-119.202;2022-09-06T07:06:44;7.00;;;2.03;;
64174;SDS011;50469;50.438;-119.202;2022-09-06T07:09:40;6.47;;;1.70;;
64174;SDS011;50469;50.438;-119.202;2022-09-06T07:12:32;4.53;;;1.60;;
64174;SDS011;50469;50.438;-119.202;2022-09-06T07:15:02;13.98;;;2.53;;
64174;SDS011;50469;50.438;-119.202;2022-09-06T07:17:31;18.02;;;2.47;;
64174;SDS011;50469;50.438;-119.202;2022-09-06T07:20:02;11.65;;;2.03;;
64174;SDS011;50469;50.438;-119.202;2022-09-06T07:22:37;9.45;;;1.90;;
64174;SDS011;50469;50.438;-119.202;2022-09-06T07:25:06;12.32;;;1.80;;
64174;SDS011;50469;50.438;-119.202;2022-09-06T07:27:38;8.45;;;1.80;;
64174;SDS011;50469;50.438;-119.202;2022-09-06T07:30:09;4.03;;;1.75;;
64174;SDS011;50469;50.438;-119.202;2022-09-06T07:32:38;4.55;;;2.28;;
64174;SDS011;50469;50.438;-119.202;2022-09-06T07:35:06;7.32;;;2.22;;
64174;SDS011;50469;50.438;-119.202;2022-09-06T07:37:34;4.13;;;2.30;;
64174;SDS011;50469;50.438;-119.202;2022-09-06T07:40:02;9.65;;;2.38;;
64174;SDS011;50469;50.438;-119.202;2022-09-06T07:42:34;10.68;;;2.13;;
64174;SDS011;50469;50.438;-119.202;2022-09-06T07:45:03;10.43;;;2.13;;
64174;SDS011;50469;50.438;-119.202;2022-09-06T07:47:32;6.97;;;2.03;;
64174;SDS011;50469;50.438;-119.202;2022-09-06T07:50:22;8.20;;;2.10;;
64174;SDS011;50469;50.438;-119.202;2022-09-06T07:53:11;2.08;;;1.65;;
64174;SDS011;50469;50.438;-119.202;2022-09-06T07:55:43;7.93;;;2.10;;
64174;SDS011;50469;50.438;-119.202;2022-09-06T07:58:13;5.10;;;2.13;;
64174;SDS011;50469;50.438;-119.202;2022-09-06T08:00:41;7.78;;;2.20;;
64174;SDS011;50469;50.438;-119.202;2022-09-06T08:03:12;2.60;;;1.95;;
64174;SDS011;50469;50.438;-119.202;2022-09-06T08:05:40;6.50;;;2.40;;
64174;SDS011;50469;50.438;-119.202;2022-09-06T08:08:29;15.63;;;2.33;;
64174;SDS011;50469;50.438;-119.202;2022-09-06T08:11:17;6.30;;;2.03;;
64174;SDS011;50469;50.438;-119.202;2022-09-06T08:13:49;6.75;;;3.05;;
64174;SDS011;50469;50.438;-119.202;2022-09-06T08:16:19;7.90;;;2.78;;
64174;SDS011;50469;50.438;-119.202;2022-09-06T08:18:51;10.50;;;2.53;;
64174;SDS011;50469;50.438;-119.202;2022-09-06T08:21:21;6.47;;;2.47;;
64174;SDS011;50469;50.438;-119.202;2022-09-06T08:23:53;9.52;;;2.67;;
64174;SDS011;50469;50.438;-119.202;2022-09-06T08:26:23;4.75;;;2.55;;
64174;SDS011;50469;50.438;-119.202;2022-09-06T08:28:56;4.53;;;2.70;;
64174;SDS011;50469;50.438;-119.202;2022-09-06T08:31:30;8.50;;;2.42;;
64174;SDS011;50469;50.438;-119.202;2022-09-06T08:34:00;7.50;;;2.40;;
64174;SDS011;50469;50.438;-119.202;2022-09-06T08:36:29;7.93;;;2.42;;
64174;SDS011;50469;50.438;-119.202;2022-09-06T08:38:58;6.28;;;2.42;;
64174;SDS011;50469;50.438;-119.202;2022-09-06T08:47:14;4.13;;;2.65;;
64174;SDS011;50469;50.438;-119.202;2022-09-06T08:58:18;5.10;;;2.42;;
64174;SDS011;50469;50.438;-119.202;2022-09-06T09:01:13;7.88;;;2.05;;
64174;SDS011;50469;50.438;-119.202;2022-09-06T09:03:47;6.47;;;2.40;;
64174;SDS011;50469;50.438;-119.202;2022-09-06T09:06:16;3.97;;;2.47;;
64174;SDS011;50469;50.438;-119.202;2022-09-06T09:11:21;10.88;;;2.20;;
64174;SDS011;50469;50.438;-119.202;2022-09-06T09:14:00;19.20;;;2.55;;
64174;SDS011;50469;50.438;-119.202;2022-09-06T09:16:33;5.88;;;1.98;;
64174;SDS011;50469;50.438;-119.202;2022-09-06T09:19:02;11.07;;;2.45;;
64174;SDS011;50469;50.438;-119.202;2022-09-06T09:21:35;10.48;;;2.58;;
64174;SDS011;50469;50.438;-119.202;2022-09-06T09:24:06;7.88;;;2.25;;
64174;SDS011;50469;50.438;-119.202;2022-09-06T09:26:53;5.55;;;2.10;;
64174;SDS011;50469;50.438;-119.202;2022-09-06T09:29:24;7.20;;;2.33;;
64174;SDS011;50469;50.438;-119.202;2022-09-06T09:32:01;5.53;;;2.25;;
64174;SDS011;50469;50.438;-119.202;2022-09-06T09:34:33;4.95;;;2.63;;
64174;SDS011;50469;50.438;-119.202;2022-09-06T09:37:24;7.03;;;1.75;;
64174;SDS011;50469;50.438;-119.202;2022-09-06T09:40:33;2.20;;;2.00;;
64174;SDS011;50469;50.438;-119.202;2022-09-06T09:54:29;3.55;;;2.17;;
64174;SDS011;50469;50.438;-119.202;2022-09-06T09:56:58;3.78;;;2.15;;
64174;SDS011;50469;50.438;-119.202;2022-09-06T09:59:28;3.10;;;1.52;;
64174;SDS011;50469;50.438;-119.202;2022-09-06T10:04:52;5.35;;;2.10;;
64174;SDS011;50469;50.438;-119.202;2022-09-06T10:07:40;6.30;;;2.30;;
64174;SDS011;50469;50.438;-119.202;2022-09-06T10:13:18;13.05;;;2.40;;
64174;SDS011;50469;50.438;-119.202;2022-09-06T10:15:49;5.60;;;2.10;;
64174;SDS011;50469;50.438;-119.202;2022-09-06T10:20:48;7.28;;;2.10;;
64174;SDS011;50469;50.438;-119.202;2022-09-06T10:23:23;4.18;;;2.20;;
64174;SDS011;50469;50.438;-119.202;2022-09-06T10:26:30;8.63;;;1.92;;
64174;SDS011;50469;50.438;-119.202;2022-09-06T10:29:05;6.82;;;1.90;;
64174;SDS011;50469;50.438;-119.202;2022-09-06T10:37:00;3.45;;;2.30;;
64174;SDS011;50469;50.438;-119.202;2022-09-06T10:51:09;4.20;;;2.08;;
64174;SDS011;50469;50.438;-119.202;2022-09-06T10:59:46;7.35;;;2.20;;
64174;SDS011;50469;50.438;-119.202;2022-09-06T11:04:55;8.32;;;2.63;;
64174;SDS011;50469;50.438;-119.202;2022-09-06T11:07:51;8.25;;;2.13;;
64174;SDS011;50469;50.438;-119.202;2022-09-06T11:10:44;11.05;;;2.00;;
64174;SDS011;50469;50.438;-119.202;2022-09-06T11:13:15;8.30;;;2.65;;
64174;SDS011;50469;50.438;-119.202;2022-09-06T11:15:48;5.43;;;2.60;;
64174;SDS011;50469;50.438;-119.202;2022-09-06T11:21:37;2.70;;;1.98;;
64174;SDS011;50469;50.438;-119.202;2022-09-06T11:24:35;5.22;;;2.28;;
64174;SDS011;50469;50.438;-119.202;2022-09-06T11:29:47;6.50;;;2.20;;
64174;SDS011;50469;50.438;-119.202;2022-09-06T11:35:05;9.10;;;2.45;;
64174;SDS011;50469;50.438;-119.202;2022-09-06T11:37:48;10.38;;;2.80;;
64174;SDS011;50469;50.438;-119.202;2022-09-06T11:40:40;6.60;;;2.15;;
64174;SDS011;50469;50.438;-119.202;2022-09-06T11:43:20;6.53;;;2.60;;
64174;SDS011;50469;50.438;-119.202;2022-09-06T11:49:07;3.25;;;1.83;;
64174;SDS011;50469;50.438;-119.202;2022-09-06T11:51:51;4.13;;;2.08;;
64174;SDS011;50469;50.438;-119.202;2022-09-06T11:56:57;6.22;;;1.95;;
64174;SDS011;50469;50.438;-119.202;2022-09-06T12:07:29;6.97;;;2.00;;
64174;SDS011;50469;50.438;-119.202;2022-09-06T12:10:00;3.60;;;1.90;;
64174;SDS011;50469;50.438;-119.202;2022-09-06T12:12:49;3.13;;;2.15;;
64174;SDS011;50469;50.438;-119.202;2022-09-06T12:17:51;9.10;;;2.20;;
64174;SDS011;50469;50.438;-119.202;2022-09-06T12:26:02;5.28;;;2.22;;
64174;SDS011;50469;50.438;-119.202;2022-09-06T12:31:23;9.32;;;2.17;;
64174;SDS011;50469;50.438;-119.202;2022-09-06T12:34:04;5.50;;;2.22;;
64174;SDS011;50469;50.438;-119.202;2022-09-06T12:36:36;4.03;;;2.10;;
64174;SDS011;50469;50.438;-119.202;2022-09-06T12:39:15;12.55;;;2.25;;
64174;SDS011;50469;50.438;-119.202;2022-09-06T12:41:47;3.17;;;2.20;;
64174;SDS011;50469;50.438;-119.202;2022-09-06T12:44:25;13.10;;;2.58;;
64174;SDS011;50469;50.438;-119.202;2022-09-06T12:46:58;8.45;;;2.35;;
64174;SDS011;50469;50.438;-119.202;2022-09-06T12:52:50;7.28;;;2.38;;
64174;SDS011;50469;50.438;-119.202;2022-09-06T12:58:05;5.25;;;2.67;;
64174;SDS011;50469;50.438;-119.202;2022-09-06T13:00:36;14.90;;;2.75;;
64174;SDS011;50469;50.438;-119.202;2022-09-06T13:06:06;5.43;;;2.60;;
64174;SDS011;50469;50.438;-119.202;2022-09-06T13:08:42;7.63;;;2.13;;
64174;SDS011;50469;50.438;-119.202;2022-09-06T13:11:20;11.88;;;2.38;;
64174;SDS011;50469;50.438;-119.202;2022-09-06T13:13:55;6.35;;;2.35;;
64174;SDS011;50469;50.438;-119.202;2022-09-06T13:16:27;10.10;;;2.88;;
64174;SDS011;50469;50.438;-119.202;2022-09-06T13:19:13;13.23;;;2.40;;
64174;SDS011;50469;50.438;-119.202;2022-09-06T13:21:43;4.13;;;2.30;;
64174;SDS011;50469;50.438;-119.202;2022-09-06T13:24:19;5.07;;;2.05;;
64174;SDS011;50469;50.438;-119.202;2022-09-06T13:27:23;4.70;;;2.55;;
64174;SDS011;50469;50.438;-119.202;2022-09-06T13:29:58;10.05;;;2.67;;
64174;SDS011;50469;50.438;-119.202;2022-09-06T13:32:27;6.63;;;2.17;;
64174;SDS011;50469;50.438;-119.202;2022-09-06T13:34:58;6.03;;;2.30;;
64174;SDS011;50469;50.438;-119.202;2022-09-06T13:37:28;6.18;;;2.53;;
64174;SDS011;50469;50.438;-119.202;2022-09-06T13:40:01;4.10;;;1.88;;
64174;SDS011;50469;50.438;-119.202;2022-09-06T13:42:58;11.02;;;3.05;;
64174;SDS011;50469;50.438;-119.202;2022-09-06T13:45:27;18.83;;;3.70;;
64174;SDS011;50469;50.438;-119.202;2022-09-06T13:47:56;11.18;;;2.22;;
64174;SDS011;50469;50.438;-119.202;2022-09-06T13:50:44;7.65;;;2.53;;
64174;SDS011;50469;50.438;-119.202;2022-09-06T13:53:17;15.95;;;2.80;;
64174;SDS011;50469;50.438;-119.202;2022-09-06T13:55:47;14.23;;;3.13;;
64174;SDS011;50469;50.438;-119.202;2022-09-06T13:58:15;17.52;;;2.95;;
64174;SDS011;50469;50.438;-119.202;2022-09-06T14:00:46;22.33;;;3.10;;
64174;SDS011;50469;50.438;-119.202;2022-09-06T14:03:22;13.38;;;3.08;;
64174;SDS011;50469;50.438;-119.202;2022-09-06T14:05:52;10.38;;;2.83;;
64174;SDS011;50469;50.438;-119.202;2022-09-06T14:08:20;14.77;;;3.33;;
64174;SDS011;50469;50.438;-119.202;2022-09-06T14:10:49;14.25;;;2.50;;
64174;SDS011;50469;50.438;-119.202;2022-09-06T14:13:18;11.10;;;2.40;;
64174;SDS011;50469;50.438;-119.202;2022-09-06T14:15:47;10.02;;;2.70;;
64174;SDS011;50469;50.438;-119.202;2022-09-06T14:18:16;17.30;;;3.13;;
64174;SDS011;50469;50.438;-119.202;2022-09-06T14:20:53;23.15;;;2.63;;
64174;SDS011;50469;50.438;-119.202;2022-09-06T14:23:22;14.35;;;2.95;;
64174;SDS011;50469;50.438;-119.202;2022-09-06T14:25:55;14.05;;;3.05;;
64174;SDS011;50469;50.438;-119.202;2022-09-06T14:28:24;6.30;;;2.88;;
64174;SDS011;50469;50.438;-119.202;2022-09-06T14:30:57;13.73;;;3.15;;
64174;SDS011;50469;50.438;-119.202;2022-09-06T14:33:36;28.52;;;3.38;;
64174;SDS011;50469;50.438;-119.202;2022-09-06T14:36:05;30.42;;;3.28;;
64174;SDS011;50469;50.438;-119.202;2022-09-06T14:38:38;4.32;;;2.75;;
64174;SDS011;50469;50.438;-119.202;2022-09-06T14:41:10;10.38;;;2.92;;
64174;SDS011;50469;50.438;-119.202;2022-09-06T14:43:40;16.70;;;3.20;;
64174;SDS011;50469;50.438;-119.202;2022-09-06T14:46:16;9.25;;;3.40;;
64174;SDS011;50469;50.438;-119.202;2022-09-06T14:48:54;11.85;;;3.38;;
64174;SDS011;50469;50.438;-119.202;2022-09-06T14:51:27;15.63;;;3.58;;
64174;SDS011;50469;50.438;-119.202;2022-09-06T14:53:57;18.30;;;3.28;;
64174;SDS011;50469;50.438;-119.202;2022-09-06T14:56:29;9.20;;;3.28;;
64174;SDS011;50469;50.438;-119.202;2022-09-06T14:58:57;12.18;;;2.95;;
64174;SDS011;50469;50.438;-119.202;2022-09-06T15:01:26;10.52;;;2.90;;
64174;SDS011;50469;50.438;-119.202;2022-09-06T15:04:02;18.02;;;2.55;;
64174;SDS011;50469;50.438;-119.202;2022-09-06T15:06:34;14.35;;;2.47;;
64174;SDS011;50469;50.438;-119.202;2022-09-06T15:09:03;23.33;;;3.13;;
64174;SDS011;50469;50.438;-119.202;2022-09-06T15:11:32;15.68;;;3.42;;
64174;SDS011;50469;50.438;-119.202;2022-09-06T15:14:07;18.30;;;2.97;;
64174;SDS011;50469;50.438;-119.202;2022-09-06T15:16:43;10.20;;;3.10;;
64174;SDS011;50469;50.438;-119.202;2022-09-06T15:19:12;20.05;;;3.85;;
64174;SDS011;50469;50.438;-119.202;2022-09-06T15:21:41;5.82;;;2.67;;
64174;SDS011;50469;50.438;-119.202;2022-09-06T15:24:12;15.60;;;3.25;;
64174;SDS011;50469;50.438;-119.202;2022-09-06T15:26:46;8.45;;;3.05;;
64174;SDS011;50469;50.438;-119.202;2022-09-06T15:29:14;16.92;;;2.78;;
64174;SDS011;50469;50.438;-119.202;2022-09-06T15:31:43;19.38;;;2.20;;
64174;SDS011;50469;50.438;-119.202;2022-09-06T15:34:11;5.85;;;2.45;;
64174;SDS011;50469;50.438;-119.202;2022-09-06T15:36:40;11.90;;;3.08;;
64174;SDS011;50469;50.438;-119.202;2022-09-06T15:39:11;9.45;;;3.38;;
64174;SDS011;50469;50.438;-119.202;2022-09-06T15:41:40;6.13;;;2.80;;
64174;SDS011;50469;50.438;-119.202;2022-09-06T15:46:42;9.65;;;2.17;;
64174;SDS011;50469;50.438;-119.202;2022-09-06T15:49:30;5.30;;;2.60;;
64174;SDS011;50469;50.438;-119.202;2022-09-06T15:51:59;12.77;;;2.22;;
64174;SDS011;50469;50.438;-119.202;2022-09-06T15:54:29;8.13;;;2.40;;
64174;SDS011;50469;50.438;-119.202;2022-09-06T15:56:57;12.30;;;2.20;;
64174;SDS011;50469;50.438;-119.202;2022-09-06T15:59:25;11.15;;;2.33;;
64174;SDS011;50469;50.438;-119.202;2022-09-06T16:01:56;6.07;;;2.53;;
64174;SDS011;50469;50.438;-119.202;2022-09-06T16:04:26;20.95;;;2.60;;
64174;SDS011;50469;50.438;-119.202;2022-09-06T16:06:54;15.55;;;2.80;;
64174;SDS011;50469;50.438;-119.202;2022-09-06T16:09:23;14.00;;;2.88;;
64174;SDS011;50469;50.438;-119.202;2022-09-06T16:11:53;6.60;;;2.10;;
64174;SDS011;50469;50.438;-119.202;2022-09-06T16:14:24;6.43;;;2.00;;
64174;SDS011;50469;50.438;-119.202;2022-09-06T16:16:52;15.43;;;2.10;;
64174;SDS011;50469;50.438;-119.202;2022-09-06T16:19:24;9.02;;;2.38;;
64174;SDS011;50469;50.438;-119.202;2022-09-06T16:21:52;5.10;;;2.30;;
64174;SDS011;50469;50.438;-119.202;2022-09-06T16:24:21;18.33;;;2.42;;
64174;SDS011;50469;50.438;-119.202;2022-09-06T16:26:49;11.90;;;2.88;;
64174;SDS011;50469;50.438;-119.202;2022-09-06T16:29:17;10.10;;;2.35;;
64174;SDS011;50469;50.438;-119.202;2022-09-06T16:31:46;3.08;;;1.80;;
64174;SDS011;50469;50.438;-119.202;2022-09-06T16:34:14;17.75;;;2.40;;
64174;SDS011;50469;50.438;-119.202;2022-09-06T16:36:45;20.38;;;2.20;;
64174;SDS011;50469;50.438;-119.202;2022-09-06T16:39:13;14.38;;;2.38;;
64174;SDS011;50469;50.438;-119.202;2022-09-06T16:41:44;6.72;;;2.03;;
64174;SDS011;50469;50.438;-119.202;2022-09-06T16:44:13;14.15;;;2.30;;
64174;SDS011;50469;50.438;-119.202;2022-09-06T16:46:43;14.75;;;2.30;;
64174;SDS011;50469;50.438;-119.202;2022-09-06T16:49:13;4.72;;;1.90;;
64174;SDS011;50469;50.438;-119.202;2022-09-06T16:51:43;10.23;;;1.90;;
64174;SDS011;50469;50.438;-119.202;2022-09-06T16:54:13;10.68;;;2.83;;
64174;SDS011;50469;50.438;-119.202;2022-09-06T16:56:42;7.47;;;2.35;;
64174;SDS011;50469;50.438;-119.202;2022-09-06T16:59:13;4.60;;;1.88;;
64174;SDS011;50469;50.438;-119.202;2022-09-06T17:01:44;6.65;;;1.80;;
64174;SDS011;50469;50.438;-119.202;2022-09-06T17:04:13;2.85;;;1.55;;
64174;SDS011;50469;50.438;-119.202;2022-09-06T17:06:41;6.20;;;1.50;;
64174;SDS011;50469;50.438;-119.202;2022-09-06T17:09:12;2.55;;;1.75;;